createdAt,value
2019-05-12T00:00:18.360Z,30.13
2019-05-12T00:02:44.557Z,30.37
2019-05-12T00:05:10.684Z,29.50
2019-05-12T00:07:38.185Z,26.63
2019-05-12T00:10:04.947Z,25.93
2019-05-12T00:12:30.971Z,24.13
2019-05-12T00:14:58.964Z,27.83
2019-05-12T00:17:24.932Z,28.70
2019-05-12T00:19:50.970Z,28.97
2019-05-12T00:22:18.904Z,25.67
2019-05-12T00:24:44.935Z,26.40
2019-05-12T00:27:12.843Z,25.20
2019-05-12T00:29:38.879Z,27.67
2019-05-12T00:32:04.899Z,27.83
2019-05-12T00:34:30.941Z,29.67
2019-05-12T00:36:57.723Z,28.33
2019-05-12T00:39:23.900Z,35.37
2019-05-12T00:41:49.912Z,30.40
2019-05-12T00:44:18.381Z,28.90
2019-05-12T00:46:44.686Z,26.87
2019-05-12T00:49:10.704Z,25.87
2019-05-12T00:51:38.336Z,29.37
2019-05-12T00:54:04.655Z,25.60
2019-05-12T00:56:30.699Z,28.07
2019-05-12T00:58:58.005Z,27.70
2019-05-12T01:01:24.123Z,27.17
2019-05-12T01:03:50.143Z,26.40
2019-05-12T01:06:17.834Z,30.60
2019-05-12T01:08:43.999Z,30.73
2019-05-12T01:11:10.027Z,31.10
2019-05-12T01:13:38.156Z,27.27
2019-05-12T01:16:03.991Z,28.63
2019-05-12T01:18:29.995Z,28.83
2019-05-12T01:20:58.173Z,26.90
2019-05-12T01:23:23.992Z,27.47
2019-05-12T01:25:50.804Z,26.40
2019-05-12T01:28:18.409Z,25.93
2019-05-12T01:30:44.652Z,26.40
2019-05-12T01:33:10.666Z,26.67
2019-05-12T01:35:38.819Z,28.33
2019-05-12T01:38:04.939Z,29.80
2019-05-12T01:40:32.039Z,26.67
2019-05-12T01:42:58.465Z,26.93
2019-05-12T01:45:24.690Z,27.23
2019-05-12T01:47:50.722Z,25.20
2019-05-12T01:50:17.777Z,26.67
2019-05-12T01:52:43.991Z,26.87
2019-05-12T01:55:10.223Z,24.63
2019-05-12T01:57:38.532Z,26.47
2019-05-12T02:00:10.430Z,27.05
2019-05-12T02:02:58.773Z,25.97
2019-05-12T02:05:24.947Z,26.77
2019-05-12T02:07:55.135Z,24.80
2019-05-12T02:10:21.967Z,27.40
2019-05-12T02:12:49.052Z,26.97
2019-05-12T02:15:18.367Z,26.30
2019-05-12T02:17:44.539Z,28.57
2019-05-12T02:20:11.383Z,33.17
2019-05-12T02:22:38.860Z,30.70
2019-05-12T02:25:08.097Z,35.20
2019-05-12T02:27:34.304Z,29.87
2019-05-12T02:30:00.324Z,24.90
2019-05-12T02:32:32.743Z,22.60
2019-05-12T02:34:54.862Z,21.03
2019-05-12T02:37:21.107Z,22.60
2019-05-12T02:39:47.124Z,22.07
2019-05-12T02:42:15.551Z,23.10
2019-05-12T02:44:43.715Z,24.10
2019-05-12T02:47:09.041Z,24.97
2019-05-12T02:49:35.066Z,25.67
2019-05-12T02:52:04.944Z,24.07
2019-05-12T02:54:50.593Z,22.67
2019-05-12T02:57:04.238Z,25.23
2019-05-12T02:59:34.422Z,25.53
2019-05-12T03:01:59.175Z,25.93
2019-05-12T03:04:47.020Z,26.47
2019-05-12T03:07:15.374Z,24.83
2019-05-12T03:09:40.987Z,25.97
2019-05-12T03:12:07.320Z,26.53
2019-05-12T03:14:39.429Z,26.07
2019-05-12T03:17:04.577Z,25.57
2019-05-12T03:19:29.235Z,24.57
2019-05-12T03:21:55.259Z,25.47
2019-05-12T03:24:21.295Z,26.13
2019-05-12T03:26:47.324Z,24.30
2019-05-12T03:29:14.770Z,23.47
2019-05-12T03:31:41.500Z,24.27
2019-05-12T03:34:10.252Z,24.17
2019-05-12T03:36:42.061Z,24.30
2019-05-12T03:39:06.388Z,24.17
2019-05-12T03:41:34.739Z,24.27
2019-05-12T03:44:01.423Z,22.33
2019-05-12T03:46:27.462Z,23.73
2019-05-12T03:48:55.385Z,21.97
2019-05-12T03:51:24.965Z,20.63
2019-05-12T03:53:49.435Z,20.40
2019-05-12T03:56:15.520Z,27.25
2019-05-12T03:58:44.985Z,21.00
2019-05-12T04:01:09.481Z,20.50
2019-05-12T04:03:35.488Z,19.77
2019-05-12T04:06:04.480Z,18.57
2019-05-12T04:08:29.442Z,18.60
2019-05-12T04:10:55.454Z,19.13
2019-05-12T04:13:21.480Z,17.97
2019-05-12T04:15:47.490Z,19.27
2019-05-12T04:18:15.864Z,17.03
2019-05-12T04:20:41.457Z,17.33
2019-05-12T04:23:07.494Z,16.03
2019-05-12T04:25:50.378Z,15.60
2019-05-12T04:28:04.547Z,16.37
2019-05-12T04:30:29.411Z,15.97
2019-05-12T04:32:55.494Z,14.90
2019-05-12T04:35:24.858Z,15.07
2019-05-12T04:37:49.511Z,14.80
2019-05-12T04:40:15.625Z,14.40
2019-05-12T04:42:44.839Z,13.27
2019-05-12T04:45:09.780Z,13.30
2019-05-12T04:47:35.860Z,12.03
2019-05-12T04:50:05.466Z,13.07
2019-05-12T04:52:31.147Z,13.23
2019-05-12T04:54:57.166Z,13.00
2019-05-12T04:57:25.445Z,11.80
2019-05-12T04:59:54.106Z,8.17
2019-05-12T05:02:19.056Z,11.73
2019-05-12T05:04:45.068Z,11.90
2019-05-12T05:07:11.104Z,10.97
2019-05-12T05:09:37.140Z,11.20
2019-05-12T05:12:04.603Z,11.87
2019-05-12T05:14:33.863Z,11.30
2019-05-12T05:16:58.893Z,11.10
2019-05-12T05:19:24.901Z,9.53
2019-05-12T05:21:50.943Z,9.00
2019-05-12T05:24:16.960Z,8.20
2019-05-12T05:26:43.596Z,6.47
2019-05-12T05:29:09.855Z,5.37
2019-05-12T05:31:35.885Z,5.28
2019-05-12T05:34:04.819Z,4.43
2019-05-12T05:36:30.339Z,3.43
2019-05-12T05:39:01.614Z,3.37
2019-05-12T05:41:24.367Z,3.80
2019-05-12T05:43:56.373Z,4.10
2019-05-12T05:46:18.319Z,2.80
2019-05-12T05:48:44.351Z,3.00
2019-05-12T05:51:10.366Z,2.33
2019-05-12T05:53:36.497Z,2.40
2019-05-12T05:56:04.084Z,2.00
2019-05-12T05:58:30.228Z,2.60
2019-05-12T06:01:03.122Z,1.60
2019-05-12T06:03:27.766Z,2.03
2019-05-12T06:05:53.458Z,2.40
2019-05-12T06:08:20.716Z,2.13
2019-05-12T06:10:47.095Z,2.23
2019-05-12T06:13:14.375Z,2.20
2019-05-12T06:15:41.021Z,2.33
2019-05-12T06:18:08.508Z,2.50
2019-05-12T06:20:37.817Z,2.10
2019-05-12T06:23:04.261Z,1.93
2019-05-12T06:25:44.558Z,1.93
2019-05-12T06:28:00.032Z,2.20
2019-05-12T06:30:26.318Z,2.43
2019-05-12T06:32:54.571Z,2.60
2019-05-12T06:35:20.272Z,2.47
2019-05-12T06:37:57.270Z,2.13
2019-05-12T06:40:14.302Z,1.90
2019-05-12T06:42:40.320Z,2.07
2019-05-12T06:45:06.750Z,1.57
2019-05-12T06:47:34.396Z,1.77
2019-05-12T06:50:03.681Z,1.90
2019-05-12T06:52:29.290Z,1.70
2019-05-12T06:54:56.807Z,1.93
2019-05-12T06:57:28.393Z,1.40
2019-05-12T06:59:52.453Z,1.80
2019-05-12T07:02:18.775Z,1.27
2019-05-12T07:04:47.446Z,1.30
2019-05-12T07:07:14.178Z,1.50
2019-05-12T07:09:51.993Z,1.50
2019-05-12T07:12:08.389Z,1.53
2019-05-12T07:14:34.682Z,1.33
2019-05-12T07:17:05.586Z,1.87
2019-05-12T07:19:30.648Z,1.50
2019-05-12T07:21:59.857Z,1.73
2019-05-12T07:24:24.619Z,1.20
2019-05-12T07:26:54.792Z,1.10
2019-05-12T07:29:18.863Z,1.40
2019-05-12T07:31:44.888Z,1.47
2019-05-12T07:34:13.500Z,2.23
2019-05-12T07:36:39.135Z,1.53
2019-05-12T07:39:08.352Z,1.00
2019-05-12T07:41:56.474Z,1.17
2019-05-12T07:44:25.263Z,1.10
2019-05-12T07:46:53.597Z,1.30
2019-05-12T07:49:22.021Z,1.30
2019-05-12T07:51:49.986Z,1.17
2019-05-12T07:54:15.357Z,1.20
2019-05-12T07:56:44.083Z,1.33
2019-05-12T07:59:09.307Z,1.30
2019-05-12T08:01:44.773Z,1.40
2019-05-12T08:04:04.545Z,2.33
2019-05-12T08:06:32.579Z,1.70
2019-05-12T08:09:24.039Z,1.30
2019-05-12T08:11:46.620Z,1.50
2019-05-12T08:14:24.796Z,1.60
2019-05-12T08:17:10.093Z,1.47
2019-05-12T08:19:29.126Z,1.60
2019-05-12T08:21:55.251Z,1.60
2019-05-12T08:24:23.519Z,1.57
2019-05-12T08:26:58.725Z,1.37
2019-05-12T08:29:21.433Z,1.73
2019-05-12T08:31:45.151Z,1.63
2019-05-12T08:34:13.521Z,1.40
2019-05-12T08:36:39.136Z,1.40
2019-05-12T08:39:11.815Z,2.27
2019-05-12T08:41:34.440Z,1.70
2019-05-12T08:44:04.434Z,1.30
2019-05-12T08:46:52.033Z,1.27
2019-05-12T08:49:16.262Z,1.13
2019-05-12T08:51:44.253Z,1.87
2019-05-12T08:54:10.597Z,1.67
2019-05-12T08:56:36.697Z,1.40
2019-05-12T08:59:04.374Z,1.40
2019-05-12T09:01:30.967Z,1.20
2019-05-12T09:04:00.254Z,1.70
2019-05-12T09:06:25.835Z,1.80
2019-05-12T09:08:54.068Z,2.22
2019-05-12T09:11:20.091Z,1.40
2019-05-12T09:13:46.129Z,1.43
2019-05-12T09:16:13.782Z,1.83
2019-05-12T09:18:40.060Z,1.50
2019-05-12T09:21:06.088Z,1.37
2019-05-12T09:23:40.803Z,1.40
2019-05-12T09:26:00.147Z,1.73
2019-05-12T09:28:26.191Z,1.30
2019-05-12T09:30:53.887Z,1.40
2019-05-12T09:33:21.328Z,1.30
2019-05-12T09:35:48.059Z,1.43
2019-05-12T09:38:21.426Z,1.60
2019-05-12T09:40:44.227Z,1.80
2019-05-12T09:43:10.807Z,2.10
2019-05-12T09:45:40.716Z,1.50
2019-05-12T09:48:09.075Z,1.70
2019-05-12T09:50:34.260Z,1.57
2019-05-12T09:53:09.284Z,1.63
2019-05-12T09:55:29.008Z,1.63
2019-05-12T09:57:55.051Z,2.23
2019-05-12T10:00:21.367Z,2.17
2019-05-12T10:02:51.049Z,1.13
2019-05-12T10:05:15.544Z,1.40
2019-05-12T10:07:41.569Z,1.90
2019-05-12T10:10:08.161Z,1.70
2019-05-12T10:12:36.609Z,1.50
2019-05-12T10:15:08.355Z,1.30
2019-05-12T10:17:36.351Z,1.73
2019-05-12T10:20:05.114Z,1.50
2019-05-12T10:22:37.746Z,1.10
2019-05-12T10:25:05.184Z,1.40
2019-05-12T10:27:32.478Z,1.53
2019-05-12T10:30:05.527Z,1.30
2019-05-12T10:32:27.363Z,1.93
2019-05-12T10:34:53.791Z,1.27
2019-05-12T10:37:25.355Z,1.50
2019-05-12T10:39:47.879Z,1.70
2019-05-12T10:42:13.919Z,2.07
2019-05-12T10:44:40.898Z,1.40
2019-05-12T10:47:07.167Z,1.60
2019-05-12T10:49:33.801Z,1.40
2019-05-12T10:51:59.984Z,1.27
2019-05-12T10:54:26.000Z,1.27
2019-05-12T10:56:54.569Z,1.83
2019-05-12T10:59:30.179Z,1.17
2019-05-12T11:01:49.130Z,1.33
2019-05-12T11:04:15.307Z,2.90
2019-05-12T11:06:46.856Z,1.30
2019-05-12T11:09:15.183Z,1.10
2019-05-12T11:11:43.716Z,1.53
2019-05-12T11:14:09.129Z,1.40
2019-05-12T11:16:35.176Z,1.57
2019-05-12T11:19:08.736Z,1.60
2019-05-12T11:21:29.126Z,1.47
2019-05-12T11:23:55.146Z,1.50
2019-05-12T11:26:23.434Z,1.43
2019-05-12T11:28:49.123Z,1.50
2019-05-12T11:31:35.032Z,1.37
2019-05-12T11:34:01.043Z,1.23
2019-05-12T11:36:27.095Z,1.40
2019-05-12T11:38:53.405Z,1.27
2019-05-12T11:41:20.330Z,1.67
2019-05-12T11:43:46.606Z,1.03
2019-05-12T11:46:12.626Z,1.17
2019-05-12T11:48:40.249Z,1.20
2019-05-12T11:51:06.801Z,1.70
2019-05-12T11:53:35.619Z,1.20
2019-05-12T11:56:02.370Z,1.20
2019-05-12T11:58:29.587Z,1.63
2019-05-12T12:00:58.479Z,1.00
2019-05-12T12:03:25.452Z,1.20
2019-05-12T12:05:53.582Z,1.37
2019-05-12T12:08:19.407Z,1.17
2019-05-12T12:10:48.659Z,1.60
2019-05-12T12:13:14.183Z,1.40
2019-05-12T12:15:40.479Z,1.30
2019-05-12T12:18:13.000Z,1.10
2019-05-12T12:20:34.601Z,0.97
2019-05-12T12:23:06.541Z,1.20
2019-05-12T12:25:30.672Z,1.30
2019-05-12T12:27:56.720Z,1.50
2019-05-12T12:30:23.656Z,1.50
2019-05-12T12:32:50.237Z,1.20
2019-05-12T12:35:18.157Z,1.30
2019-05-12T12:37:44.961Z,0.90
2019-05-12T12:40:11.719Z,1.13
2019-05-12T12:42:43.906Z,1.00
2019-05-12T12:45:17.293Z,1.13
2019-05-12T12:47:47.079Z,1.20
2019-05-12T12:50:13.258Z,0.80
2019-05-12T12:52:59.049Z,1.07
2019-05-12T12:55:25.239Z,1.20
2019-05-12T12:57:51.332Z,1.10
2019-05-12T13:00:28.813Z,1.30
2019-05-12T13:02:49.313Z,1.10
2019-05-12T13:05:13.641Z,1.30
2019-05-12T13:07:39.909Z,1.10
2019-05-12T13:10:09.552Z,1.00
2019-05-12T13:12:35.853Z,1.00
2019-05-12T13:15:04.643Z,0.95
2019-05-12T13:17:39.969Z,0.97
2019-05-12T13:19:58.989Z,1.13
2019-05-12T13:22:25.096Z,1.20
2019-05-12T13:24:53.057Z,1.10
2019-05-12T13:27:23.947Z,0.80
2019-05-12T13:29:46.982Z,1.17
2019-05-12T13:32:13.790Z,1.00
2019-05-12T13:34:40.049Z,1.03
2019-05-12T13:37:09.318Z,0.90
2019-05-12T13:39:34.200Z,1.10
2019-05-12T13:42:00.438Z,0.90
2019-05-12T13:44:30.447Z,1.20
2019-05-12T13:46:58.676Z,1.00
2019-05-12T13:49:24.376Z,1.03
2019-05-12T13:51:50.458Z,0.73
2019-05-12T13:54:20.233Z,0.80
2019-05-12T13:57:11.941Z,0.70
2019-05-12T13:59:34.065Z,0.80
2019-05-12T14:02:00.263Z,1.00
2019-05-12T14:04:27.857Z,1.00
2019-05-12T14:06:54.351Z,0.60
2019-05-12T14:09:20.528Z,0.80
2019-05-12T14:11:46.571Z,1.03
2019-05-12T14:14:15.371Z,0.80
2019-05-12T14:16:44.492Z,0.70
2019-05-12T14:19:08.463Z,0.90
2019-05-12T14:21:40.958Z,0.80
2019-05-12T14:24:02.678Z,0.70
2019-05-12T14:26:28.692Z,0.90
2019-05-12T14:28:54.723Z,0.90
2019-05-12T14:31:29.209Z,0.70
2019-05-12T14:33:48.679Z,0.70
2019-05-12T14:36:21.512Z,0.70
2019-05-12T14:38:42.994Z,0.70
2019-05-12T14:41:11.659Z,0.80
2019-05-12T14:43:37.690Z,0.80
2019-05-12T14:46:06.235Z,0.60
2019-05-12T14:48:33.586Z,0.70
2019-05-12T14:51:00.091Z,0.90
2019-05-12T14:53:26.498Z,0.77
2019-05-12T14:55:53.559Z,0.70
2019-05-12T14:58:20.790Z,0.63
2019-05-12T15:00:50.841Z,0.77
2019-05-12T15:03:16.477Z,1.27
2019-05-12T15:05:47.381Z,0.70
2019-05-12T15:08:13.553Z,1.10
2019-05-12T15:10:39.721Z,0.70
2019-05-12T15:13:06.103Z,0.70
2019-05-12T15:15:33.571Z,0.57
2019-05-12T15:18:03.542Z,0.60
2019-05-12T15:20:28.222Z,1.57
2019-05-12T15:22:55.373Z,1.30
2019-05-12T15:25:21.663Z,0.50
2019-05-12T15:27:48.494Z,0.70
2019-05-12T15:30:22.806Z,1.00
2019-05-12T15:32:42.643Z,1.12
2019-05-12T15:35:09.170Z,1.00
2019-05-12T15:37:38.965Z,1.30
2019-05-12T15:40:24.940Z,1.17
2019-05-12T15:42:55.037Z,1.15
2019-05-12T15:45:18.982Z,1.30
2019-05-12T15:47:45.026Z,1.20
2019-05-12T15:50:11.468Z,1.20
2019-05-12T15:52:42.246Z,1.50
2019-05-12T15:55:06.734Z,1.50
2019-05-12T15:57:33.520Z,1.50
2019-05-12T15:59:59.688Z,1.47
2019-05-12T16:02:25.704Z,1.60
2019-05-12T16:04:51.751Z,1.40
2019-05-12T16:08:14.307Z,1.25
2019-05-12T16:10:40.543Z,1.30
2019-05-12T16:13:06.927Z,0.90
2019-05-12T16:15:34.051Z,1.20
2019-05-12T16:18:05.643Z,1.20
2019-05-12T16:20:29.943Z,0.90
2019-05-12T16:22:56.330Z,1.10
2019-05-12T16:25:28.897Z,1.25
2019-05-12T16:27:50.755Z,1.27
2019-05-12T16:30:20.376Z,0.82
2019-05-12T16:32:47.796Z,0.90
2019-05-12T16:35:14.534Z,1.00
2019-05-12T16:37:41.232Z,0.97
2019-05-12T16:40:07.870Z,1.00
2019-05-12T16:42:33.969Z,1.02
2019-05-12T16:45:08.120Z,0.98
2019-05-12T16:47:32.873Z,1.00
2019-05-12T16:49:58.343Z,1.30
2019-05-12T16:52:26.408Z,1.22
2019-05-12T16:54:54.071Z,1.22
2019-05-12T16:57:20.307Z,1.07
2019-05-12T16:59:46.350Z,1.20
2019-05-12T17:02:13.732Z,1.05
2019-05-12T17:04:40.057Z,0.90
2019-05-12T17:07:09.824Z,1.10
2019-05-12T17:09:34.025Z,0.83
2019-05-12T17:12:00.157Z,1.13
2019-05-12T17:14:28.647Z,0.60
2019-05-12T17:16:54.416Z,0.82
2019-05-12T17:19:20.543Z,0.90
2019-05-12T17:21:49.354Z,0.47
2019-05-12T17:24:17.485Z,0.73
2019-05-12T17:26:43.984Z,0.90
2019-05-12T17:29:10.139Z,0.80
2019-05-12T17:31:36.178Z,0.97
2019-05-12T17:34:08.243Z,0.70
2019-05-12T17:36:30.173Z,0.70
2019-05-12T17:38:57.804Z,0.70
2019-05-12T17:41:23.923Z,0.87
2019-05-12T17:43:59.533Z,0.90
2019-05-12T17:46:18.394Z,0.60
2019-05-12T17:48:44.937Z,0.50
2019-05-12T17:51:13.346Z,0.53
2019-05-12T17:53:39.132Z,0.83
2019-05-12T17:56:05.163Z,0.70
2019-05-12T17:58:36.681Z,0.70
2019-05-12T18:00:59.116Z,0.67
2019-05-12T18:03:25.825Z,0.70
2019-05-12T18:05:53.421Z,0.57
2019-05-12T18:08:24.005Z,0.43
2019-05-12T18:10:48.124Z,0.70
2019-05-12T18:13:22.849Z,0.67
2019-05-12T18:15:44.144Z,0.80
2019-05-12T18:18:10.255Z,0.70
2019-05-12T18:20:40.544Z,0.70
2019-05-12T18:23:04.475Z,0.60
2019-05-12T18:25:32.263Z,0.70
2019-05-12T18:27:58.562Z,0.60
2019-05-12T18:30:24.648Z,0.50
2019-05-12T18:32:55.032Z,1.00
2019-05-12T18:35:20.239Z,0.80
2019-05-12T18:37:46.268Z,0.80
2019-05-12T18:40:14.751Z,0.63
2019-05-12T18:42:40.438Z,0.93
2019-05-12T18:45:12.737Z,0.60
2019-05-12T18:47:36.564Z,1.00
2019-05-12T18:50:07.817Z,0.73
2019-05-12T18:52:36.455Z,0.77
2019-05-12T18:55:03.006Z,1.27
2019-05-12T18:57:29.057Z,0.60
2019-05-12T19:00:01.390Z,1.03
2019-05-12T19:02:28.171Z,1.00
2019-05-12T19:04:50.999Z,0.70
2019-05-12T19:07:17.061Z,0.73
2019-05-12T19:09:47.043Z,0.90
2019-05-12T19:12:17.889Z,0.60
2019-05-12T19:14:43.398Z,1.23
2019-05-12T19:17:08.921Z,0.90
2019-05-12T19:19:35.017Z,0.87
2019-05-12T19:22:06.763Z,1.00
2019-05-12T19:24:29.207Z,0.67
2019-05-12T19:27:04.199Z,0.70
2019-05-12T19:29:35.209Z,0.93
2019-05-12T19:31:58.238Z,0.87
2019-05-12T19:34:26.304Z,0.83
2019-05-12T19:39:36.905Z,0.70
2019-05-12T19:42:03.724Z,0.82
2019-05-12T19:44:34.108Z,1.30
2019-05-12T19:46:59.729Z,0.80
2019-05-12T19:49:45.885Z,0.60
2019-05-12T19:51:58.462Z,0.63
2019-05-12T19:54:29.511Z,0.90
2019-05-12T19:56:53.768Z,0.90
2019-05-12T19:59:19.990Z,1.12
2019-05-12T20:01:46.167Z,1.30
2019-05-12T20:04:15.467Z,0.97
2019-05-12T20:06:46.481Z,0.80
2019-05-12T20:09:10.981Z,0.87
2019-05-12T20:11:37.232Z,0.90
2019-05-12T20:14:10.064Z,1.03
2019-05-12T20:16:54.418Z,1.30
2019-05-12T20:19:25.322Z,1.20
2019-05-12T20:21:50.443Z,1.23
2019-05-12T20:24:24.879Z,1.90
2019-05-12T20:26:50.895Z,1.47
2019-05-12T20:29:24.547Z,1.17
2019-05-12T20:31:48.749Z,1.00
2019-05-12T20:37:13.071Z,1.00
2019-05-12T20:39:34.057Z,0.93
2019-05-12T20:42:06.457Z,1.03
2019-05-12T20:44:34.429Z,1.30
2019-05-12T20:47:01.554Z,1.00
2019-05-12T20:49:29.938Z,1.03
2019-05-12T20:55:03.853Z,1.00
2019-05-12T20:57:34.510Z,1.20
2019-05-12T21:00:04.738Z,1.03
2019-05-12T21:02:29.499Z,1.20
2019-05-12T21:05:00.898Z,1.33
2019-05-12T21:07:39.403Z,1.10
2019-05-12T21:09:55.522Z,1.10
2019-05-12T21:12:33.457Z,1.10
2019-05-12T21:15:12.628Z,1.55
2019-05-12T21:17:39.642Z,2.20
2019-05-12T21:19:59.110Z,1.70
2019-05-12T21:22:34.183Z,1.23
2019-05-12T21:25:10.573Z,3.40
2019-05-12T21:27:35.465Z,1.33
2019-05-12T21:30:10.015Z,1.57
2019-05-12T21:32:30.070Z,2.00
2019-05-12T21:34:57.916Z,1.00
2019-05-12T21:37:25.448Z,1.70
2019-05-12T21:39:51.651Z,1.23
2019-05-12T21:42:37.575Z,1.27
2019-05-12T21:45:04.718Z,1.40
2019-05-12T21:47:36.332Z,1.70
2019-05-12T21:49:59.060Z,1.30
2019-05-12T21:52:25.097Z,1.30
2019-05-12T21:54:51.138Z,1.40
2019-05-12T21:57:19.167Z,1.13
2019-05-12T21:59:45.130Z,1.70
2019-05-12T22:02:11.282Z,1.40
2019-05-12T22:04:41.234Z,1.37
2019-05-12T22:07:07.030Z,1.07
2019-05-12T22:09:41.812Z,1.10
2019-05-12T22:12:03.274Z,1.37
2019-05-12T22:14:30.502Z,1.60
2019-05-12T22:16:58.917Z,1.10
2019-05-12T22:19:30.770Z,1.03
2019-05-12T22:21:53.678Z,1.00
2019-05-12T22:24:27.457Z,1.00
2019-05-12T22:26:47.831Z,1.40
2019-05-12T22:29:13.899Z,1.10
2019-05-12T22:31:44.866Z,1.10
2019-05-12T22:34:37.059Z,0.90
2019-05-12T22:36:59.238Z,1.27
2019-05-12T22:39:24.674Z,0.73
2019-05-12T22:41:50.680Z,0.90
2019-05-12T22:44:20.779Z,1.10
2019-05-12T22:46:45.247Z,0.90
2019-05-12T22:49:16.830Z,0.70
2019-05-12T22:51:39.243Z,0.70
2019-05-12T22:54:08.725Z,1.00
2019-05-12T22:56:34.230Z,0.80
2019-05-12T22:59:01.559Z,0.80
2019-05-12T23:01:32.943Z,0.80
2019-05-12T23:03:56.080Z,0.67
2019-05-12T23:06:25.135Z,1.00
2019-05-12T23:08:50.107Z,1.10
2019-05-12T23:11:16.136Z,0.80
2019-05-12T23:13:42.853Z,0.80
2019-05-12T23:16:09.095Z,0.93
2019-05-12T23:18:35.123Z,0.80
2019-05-12T23:21:06.411Z,1.00
2019-05-12T23:23:29.272Z,1.10
2019-05-12T23:26:00.452Z,0.83
2019-05-12T23:28:23.237Z,0.67
2019-05-12T23:30:50.199Z,1.87
2019-05-12T23:33:16.303Z,1.00
2019-05-12T23:35:44.185Z,3.10
2019-05-12T23:38:15.552Z,1.20
2019-05-12T23:40:38.214Z,1.40
2019-05-12T23:43:04.339Z,3.00
2019-05-12T23:45:30.360Z,1.20
2019-05-12T23:47:56.374Z,1.10
2019-05-12T23:50:43.793Z,1.00
2019-05-12T23:53:10.039Z,1.07
2019-05-12T23:55:36.106Z,0.90
2019-05-12T23:58:04.157Z,1.10
